createdAt,value
2023-03-31T00:02:01.923Z,100021.31
2023-03-31T00:04:28.623Z,100026.34
2023-03-31T00:06:55.435Z,100014.09
2023-03-31T00:09:24.586Z,100019.84
2023-03-31T00:11:51.249Z,100018.38
2023-03-31T00:14:17.951Z,100006.88
2023-03-31T00:16:44.394Z,100013.34
2023-03-31T00:19:17.852Z,100014.00
2023-03-31T00:21:44.706Z,100002.50
2023-03-31T00:24:11.345Z,100005.38
2023-03-31T00:26:37.745Z,100001.06
2023-03-31T00:29:04.548Z,99997.44
2023-03-31T00:31:30.958Z,99992.44
2023-03-31T00:33:57.315Z,99990.97
2023-03-31T00:36:29.718Z,99996.72
2023-03-31T00:38:56.619Z,99996.72
2023-03-31T00:41:22.954Z,99990.97
2023-03-31T00:44:13.033Z,99989.50
2023-03-31T00:46:44.432Z,99985.88
2023-03-31T00:49:21.689Z,99983.75
2023-03-31T00:51:48.036Z,99982.28
2023-03-31T00:54:15.404Z,99985.16
2023-03-31T00:56:42.172Z,99985.16
2023-03-31T00:59:09.138Z,99975.03
2023-03-31T01:01:35.889Z,99971.44
2023-03-31T01:04:03.011Z,99974.31
2023-03-31T01:06:30.900Z,99964.97
2023-03-31T01:08:57.250Z,99962.09
2023-03-31T01:11:24.266Z,99948.38
2023-03-31T01:13:51.711Z,99954.13
2023-03-31T01:16:18.172Z,99959.16
2023-03-31T01:18:49.817Z,99947.66
2023-03-31T01:21:42.677Z,99940.41
2023-03-31T01:24:27.160Z,99934.66
2023-03-31T01:27:08.522Z,99940.41
2023-03-31T01:29:49.270Z,99933.94
2023-03-31T01:32:21.824Z,99940.41
2023-03-31T01:34:53.027Z,99936.81
2023-03-31T01:37:23.116Z,99928.84
2023-03-31T01:39:57.608Z,99925.97
2023-03-31T01:42:26.037Z,99931.00
2023-03-31T01:44:55.929Z,99918.78
2023-03-31T01:47:25.693Z,99913.03
2023-03-31T01:49:55.583Z,99911.56
2023-03-31T01:52:29.144Z,99911.56
2023-03-31T01:54:59.026Z,99907.19
2023-03-31T01:57:31.233Z,99903.59
2023-03-31T02:00:04.921Z,99901.44
2023-03-31T02:02:39.877Z,99892.84
2023-03-31T02:05:07.789Z,99898.56
2023-03-31T02:07:35.958Z,99886.34
2023-03-31T02:10:03.740Z,99887.75
2023-03-31T02:12:30.953Z,99884.13
2023-03-31T02:14:57.277Z,99887.00
2023-03-31T02:17:30.477Z,99884.13
2023-03-31T02:19:57.244Z,99889.88
2023-03-31T02:22:23.997Z,99884.13
2023-03-31T02:24:50.667Z,99879.81
2023-03-31T02:27:26.947Z,99876.94
2023-03-31T02:29:53.268Z,99875.44
2023-03-31T02:32:29.842Z,99872.56
2023-03-31T02:34:56.209Z,99868.25
2023-03-31T02:37:22.541Z,99869.72
2023-03-31T02:39:49.226Z,99866.09
2023-03-31T02:42:16.051Z,99869.63
2023-03-31T02:44:42.397Z,99866.75
2023-03-31T02:47:09.710Z,99860.28
2023-03-31T02:49:36.137Z,99859.63
2023-03-31T02:52:06.438Z,99856.75
2023-03-31T02:54:37.538Z,99850.38
2023-03-31T02:57:08.054Z,99847.56
2023-03-31T02:59:39.343Z,99844.09
2023-03-31T03:02:08.277Z,99842.69
2023-03-31T03:04:42.151Z,99844.25
2023-03-31T03:07:13.366Z,99842.81
2023-03-31T03:09:58.681Z,99837.78
2023-03-31T03:12:33.718Z,99831.31
2023-03-31T03:15:01.325Z,99837.06
2023-03-31T03:17:32.645Z,99824.13
2023-03-31T03:19:59.958Z,99828.44
2023-03-31T03:22:26.317Z,99824.13
2023-03-31T03:24:53.423Z,99819.81
2023-03-31T03:27:22.112Z,99816.94
2023-03-31T03:29:48.792Z,99806.88
2023-03-31T03:32:15.216Z,99809.81
2023-03-31T03:34:41.548Z,99804.78
2023-03-31T03:37:07.883Z,99802.63
2023-03-31T03:39:34.208Z,99789.75
2023-03-31T03:42:00.780Z,99802.69
2023-03-31T03:44:27.216Z,99802.69
2023-03-31T03:46:53.532Z,99798.41
2023-03-31T03:49:20.538Z,99785.47
2023-03-31T03:51:46.909Z,99794.16
2023-03-31T03:54:13.232Z,99791.19
2023-03-31T03:56:39.567Z,99785.47
2023-03-31T03:59:05.883Z,99789.75
2023-03-31T04:01:32.217Z,99789.75
2023-03-31T04:03:58.536Z,99789.75
2023-03-31T04:06:24.855Z,99781.13
2023-03-31T04:08:51.173Z,99778.97
2023-03-31T04:11:19.099Z,99778.25
2023-03-31T04:13:45.635Z,99776.78
2023-03-31T04:16:12.010Z,99782.53
2023-03-31T04:18:42.582Z,99775.31
2023-03-31T04:21:12.268Z,99762.34
2023-03-31T04:23:42.631Z,99768.09
2023-03-31T04:26:09.449Z,99763.75
2023-03-31T04:28:36.370Z,99760.88
2023-03-31T04:31:02.828Z,99763.75
2023-03-31T04:33:29.182Z,99758.06
2023-03-31T04:35:55.561Z,99755.25
2023-03-31T04:38:22.562Z,99755.25
2023-03-31T04:40:49.592Z,99752.41
2023-03-31T04:43:16.177Z,99747.41
2023-03-31T04:45:42.562Z,99749.59
2023-03-31T04:48:08.923Z,99748.16
2023-03-31T04:50:35.652Z,99738.09
2023-03-31T04:53:02.283Z,99733.09
2023-03-31T04:55:28.655Z,99726.59
2023-03-31T04:57:54.982Z,99725.16
2023-03-31T05:00:21.575Z,99714.38
2023-03-31T05:02:47.951Z,99707.19
2023-03-31T05:05:14.374Z,99706.41
2023-03-31T05:07:40.746Z,99701.44
2023-03-31T05:10:07.238Z,99706.41
2023-03-31T05:12:39.396Z,99699.22
2023-03-31T05:15:05.991Z,99707.78
2023-03-31T05:17:32.995Z,99688.56
2023-03-31T05:19:59.430Z,99707.91
2023-03-31T05:22:25.913Z,99705.81
2023-03-31T05:24:52.457Z,99699.97
2023-03-31T05:27:19.334Z,99686.91
2023-03-31T05:29:45.705Z,99672.09
2023-03-31T05:32:12.052Z,99670.34
2023-03-31T05:34:38.411Z,99678.13
2023-03-31T05:37:04.729Z,99676.03
2023-03-31T05:39:32.978Z,99667.63
2023-03-31T05:41:59.693Z,99669.75
2023-03-31T05:44:27.183Z,99668.03
2023-03-31T05:46:53.712Z,99659.06
2023-03-31T05:49:20.043Z,99650.38
2023-03-31T05:51:46.758Z,99653.06
2023-03-31T05:54:13.121Z,99649.88
2023-03-31T05:56:39.535Z,99650.09
2023-03-31T05:59:06.264Z,99645.66
2023-03-31T06:01:32.757Z,99642.56
2023-03-31T06:03:59.330Z,99633.72
2023-03-31T06:06:26.094Z,99636.50
2023-03-31T06:08:52.450Z,99632.94
2023-03-31T06:11:19.515Z,99630.19
2023-03-31T06:13:46.009Z,99627.31
2023-03-31T06:16:12.717Z,99622.81
2023-03-31T06:18:39.217Z,99625.25
2023-03-31T06:21:05.925Z,99616.19
2023-03-31T06:23:32.665Z,99620.53
2023-03-31T06:26:03.043Z,99605.50
2023-03-31T06:28:29.607Z,99605.16
2023-03-31T06:31:02.581Z,99604.53
2023-03-31T06:33:28.980Z,99608.13
2023-03-31T06:35:56.277Z,99604.34
2023-03-31T06:38:22.741Z,99606.72
2023-03-31T06:40:49.065Z,99600.63
2023-03-31T06:43:15.433Z,99599.50
2023-03-31T06:45:41.771Z,99598.44
2023-03-31T06:48:08.422Z,99594.09
2023-03-31T06:50:37.042Z,99595.47
2023-03-31T06:53:03.372Z,99598.13
2023-03-31T06:55:29.696Z,99591.69
2023-03-31T06:57:56.445Z,99593.41
2023-03-31T07:00:23.267Z,99581.81
2023-03-31T07:02:49.862Z,99581.00
2023-03-31T07:05:16.252Z,99576.84
2023-03-31T07:07:45.802Z,99577.56
2023-03-31T07:10:12.665Z,99572.56
2023-03-31T07:12:38.986Z,99570.56
2023-03-31T07:15:05.678Z,99572.56
2023-03-31T07:17:32.129Z,99557.50
2023-03-31T07:19:58.880Z,99556.84
2023-03-31T07:22:25.374Z,99550.84
2023-03-31T07:24:51.860Z,99556.09
2023-03-31T07:27:18.186Z,99560.28
2023-03-31T07:29:44.536Z,99561.25
2023-03-31T07:32:11.218Z,99560.50
2023-03-31T07:34:38.908Z,99560.38
2023-03-31T07:37:05.238Z,99554.69
2023-03-31T07:39:31.608Z,99552.47
2023-03-31T07:41:57.931Z,99556.13
2023-03-31T07:44:24.253Z,99554.69
2023-03-31T07:46:50.600Z,99553.31
2023-03-31T07:49:16.985Z,99545.50
2023-03-31T07:51:43.325Z,99538.69
2023-03-31T07:54:09.651Z,99538.00
2023-03-31T07:56:36.364Z,99544.88
2023-03-31T07:59:02.765Z,99543.38
2023-03-31T08:01:29.814Z,99529.66
2023-03-31T08:03:56.933Z,99526.31
2023-03-31T08:06:23.701Z,99525.72
2023-03-31T08:08:50.148Z,99510.19
2023-03-31T08:11:16.793Z,99515.84
2023-03-31T08:13:43.138Z,99521.34
2023-03-31T08:16:09.653Z,99510.13
2023-03-31T08:18:36.453Z,99517.31
2023-03-31T08:21:02.812Z,99508.97
2023-03-31T08:23:29.148Z,99515.28
2023-03-31T08:25:55.483Z,99507.16
2023-03-31T08:28:22.117Z,99504.22
2023-03-31T08:30:48.457Z,99490.16
2023-03-31T08:33:14.810Z,99499.53
2023-03-31T08:35:41.173Z,99490.31
2023-03-31T08:38:07.565Z,99486.03
2023-03-31T08:40:33.889Z,99486.19
2023-03-31T08:43:05.481Z,99473.91
2023-03-31T08:45:36.043Z,99475.66
2023-03-31T08:48:05.940Z,99457.84
2023-03-31T08:50:33.730Z,99468.56
2023-03-31T08:53:07.517Z,99472.06
2023-03-31T08:55:43.631Z,99460.56
2023-03-31T08:58:15.241Z,99449.16
2023-03-31T09:00:51.640Z,99459.25
2023-03-31T09:03:19.227Z,99447.72
2023-03-31T09:06:00.256Z,99442.72
2023-03-31T09:08:27.962Z,99440.56
2023-03-31T09:11:07.884Z,99438.00
2023-03-31T09:13:38.862Z,99439.72
2023-03-31T09:16:08.783Z,99434.97
2023-03-31T09:18:35.757Z,99441.59
2023-03-31T09:21:04.681Z,99442.94
2023-03-31T09:23:33.752Z,99434.16
2023-03-31T09:26:00.292Z,99436.97
2023-03-31T09:28:30.343Z,99431.19
2023-03-31T09:30:56.684Z,99423.94
2023-03-31T09:33:22.936Z,99415.31
2023-03-31T09:35:51.445Z,99414.66
2023-03-31T09:38:18.502Z,99412.22
2023-03-31T09:40:44.871Z,99403.47
2023-03-31T09:43:24.132Z,99401.53
2023-03-31T09:46:07.858Z,99385.63
2023-03-31T09:48:36.172Z,99389.63
2023-03-31T09:51:04.777Z,99382.16
2023-03-31T09:53:35.084Z,99388.31
2023-03-31T09:56:01.781Z,99377.53
2023-03-31T09:58:28.122Z,99373.00
2023-03-31T10:01:01.781Z,99366.34
2023-03-31T10:03:29.472Z,99372.38
2023-03-31T10:05:56.237Z,99374.63
2023-03-31T10:08:32.681Z,99366.88
2023-03-31T10:11:02.039Z,99369.84
2023-03-31T10:13:40.612Z,99362.69
2023-03-31T10:16:09.944Z,99358.38
2023-03-31T10:18:39.845Z,99350.47
2023-03-31T10:21:26.952Z,99349.72
2023-03-31T10:23:53.656Z,99352.13
2023-03-31T10:26:21.032Z,99341.00
2023-03-31T10:28:49.348Z,99344.44
2023-03-31T10:31:15.988Z,99340.94
2023-03-31T10:33:46.388Z,99339.63
2023-03-31T10:36:15.701Z,99346.19
2023-03-31T10:38:45.193Z,99336.13
2023-03-31T10:41:12.656Z,99337.59
2023-03-31T10:43:42.334Z,99336.13
2023-03-31T10:46:08.721Z,99337.59
2023-03-31T10:48:39.620Z,99329.09
2023-03-31T10:51:06.637Z,99328.44
2023-03-31T10:53:39.655Z,99323.09
2023-03-31T10:56:05.897Z,99314.06
2023-03-31T10:58:34.293Z,99320.66
2023-03-31T11:01:07.212Z,99307.06
2023-03-31T11:03:39.873Z,99304.34
2023-03-31T11:06:09.284Z,99311.50
2023-03-31T11:08:44.377Z,99307.22
2023-03-31T11:11:16.490Z,99293.56
2023-03-31T11:13:52.928Z,99283.50
2023-03-31T11:27:55.495Z,99261.72
2023-03-31T11:30:25.926Z,99253.13
2023-03-31T11:32:56.110Z,99249.50
2023-03-31T11:35:29.317Z,99245.84
2023-03-31T11:37:55.564Z,99244.44
2023-03-31T11:40:26.303Z,99242.22
2023-03-31T11:42:58.668Z,99243.63
2023-03-31T11:45:26.480Z,99248.59
2023-03-31T11:47:53.727Z,99243.53
2023-03-31T11:50:21.028Z,99233.38
2023-03-31T11:52:50.761Z,99237.69
2023-03-31T11:55:17.766Z,99225.50
2023-03-31T11:58:01.989Z,99228.41
2023-03-31T12:00:29.554Z,99221.44
2023-03-31T12:02:59.834Z,99214.97
2023-03-31T12:05:26.526Z,99210.75
2023-03-31T12:07:56.051Z,99200.03
2023-03-31T12:10:34.074Z,99196.50
2023-03-31T12:13:07.440Z,99194.34
2023-03-31T12:15:34.408Z,99187.19
2023-03-31T12:18:01.819Z,99180.72
2023-03-31T12:20:32.486Z,99185.72
2023-03-31T12:22:59.207Z,99182.88
2023-03-31T12:25:28.413Z,99175.69
2023-03-31T12:27:56.467Z,99174.97
2023-03-31T12:30:34.603Z,99180.72
2023-03-31T12:33:07.836Z,99165.00
2023-03-31T12:35:41.590Z,99164.34
2023-03-31T12:38:07.887Z,99159.56
2023-03-31T12:40:57.504Z,99153.88
2023-03-31T12:43:42.608Z,99164.00
2023-03-31T12:46:24.145Z,99157.53
2023-03-31T12:48:58.772Z,99164.00
2023-03-31T12:51:43.865Z,99174.13
2023-03-31T12:54:27.307Z,99173.38
2023-03-31T12:57:13.606Z,99161.19
2023-03-31T12:59:41.146Z,99165.50
2023-03-31T13:02:21.836Z,99161.06
2023-03-31T13:04:50.428Z,99161.09
2023-03-31T13:07:29.136Z,99159.88
2023-03-31T13:09:59.469Z,99160.81
2023-03-31T13:12:27.870Z,99165.06
2023-03-31T13:14:55.024Z,99160.13
2023-03-31T13:17:25.530Z,99155.84
2023-03-31T13:19:51.999Z,99153.09
2023-03-31T13:22:28.859Z,99156.44
2023-03-31T13:24:55.841Z,99154.47
2023-03-31T13:27:29.537Z,99147.00
2023-03-31T13:29:56.318Z,99137.16
2023-03-31T13:32:23.588Z,99138.00
2023-03-31T13:34:54.588Z,99137.66
2023-03-31T13:37:45.197Z,99151.28
2023-03-31T13:40:27.311Z,99140.50
2023-03-31T13:42:57.573Z,99131.88
2023-03-31T13:45:27.125Z,99131.91
2023-03-31T13:48:04.238Z,99127.72
2023-03-31T13:50:37.583Z,99137.22
2023-03-31T13:53:10.140Z,99129.31
2023-03-31T13:55:55.313Z,99134.03
2023-03-31T13:58:40.553Z,99142.03
2023-03-31T14:01:27.480Z,99139.56
2023-03-31T14:03:53.881Z,99145.78
2023-03-31T14:06:33.539Z,99138.56
2023-03-31T14:09:01.107Z,99143.75
2023-03-31T14:11:28.365Z,99133.63
2023-03-31T14:14:03.731Z,99133.00
2023-03-31T14:16:31.685Z,99138.72
2023-03-31T14:19:07.944Z,99134.34
2023-03-31T14:21:42.742Z,99137.88
2023-03-31T14:24:21.960Z,99130.13
2023-03-31T14:26:54.430Z,99127.81
2023-03-31T14:29:21.188Z,99130.88
2023-03-31T14:31:49.868Z,99121.69
2023-03-31T14:34:19.821Z,99125.22
2023-03-31T14:36:57.668Z,99128.06
2023-03-31T14:39:24.431Z,99121.56
2023-03-31T14:41:53.803Z,99130.06
2023-03-31T14:44:22.982Z,99118.47
2023-03-31T14:46:49.341Z,99114.09
2023-03-31T14:49:19.800Z,99118.84
2023-03-31T14:51:46.761Z,99116.09
2023-03-31T14:54:18.096Z,99117.44
2023-03-31T14:56:45.221Z,99113.09
2023-03-31T14:59:13.344Z,99111.44
2023-03-31T15:01:39.736Z,99099.56
2023-03-31T15:04:12.733Z,99108.06
2023-03-31T15:06:41.833Z,99105.09
2023-03-31T15:09:08.223Z,99100.72
2023-03-31T15:11:34.985Z,99106.59
2023-03-31T15:14:05.104Z,99105.03
2023-03-31T15:16:32.263Z,99109.47
2023-03-31T15:18:59.748Z,99113.13
2023-03-31T15:21:26.945Z,99106.94
2023-03-31T15:23:53.911Z,99110.47
2023-03-31T15:26:24.936Z,99103.97
2023-03-31T15:28:57.981Z,99107.63
2023-03-31T15:31:27.027Z,99102.53
2023-03-31T15:33:53.648Z,99101.84
2023-03-31T15:36:21.067Z,99096.78
2023-03-31T15:38:47.484Z,99099.59
2023-03-31T15:41:14.146Z,99093.81
2023-03-31T15:43:46.526Z,99098.22
2023-03-31T15:46:25.615Z,99097.63
2023-03-31T15:48:54.973Z,99097.00
2023-03-31T15:51:36.843Z,99093.38
2023-03-31T15:54:03.204Z,99093.63
2023-03-31T15:56:38.226Z,99086.84
2023-03-31T15:59:05.154Z,99084.75
2023-03-31T16:01:35.722Z,99088.34
2023-03-31T16:04:02.399Z,99090.00
2023-03-31T16:06:36.842Z,99093.03
2023-03-31T16:09:08.048Z,99082.78
2023-03-31T16:11:35.982Z,99088.63
2023-03-31T16:14:02.341Z,99078.56
2023-03-31T16:16:28.816Z,99077.09
2023-03-31T16:19:04.079Z,99077.47
2023-03-31T16:21:33.607Z,99076.56
2023-03-31T16:23:59.949Z,99080.94
2023-03-31T16:26:27.786Z,99076.72
2023-03-31T16:28:54.806Z,99092.69
2023-03-31T16:31:28.015Z,99087.06
2023-03-31T16:33:54.985Z,99086.72
2023-03-31T16:36:21.394Z,99085.13
2023-03-31T16:38:47.774Z,99087.31
2023-03-31T16:41:15.924Z,99092.53
2023-03-31T16:43:43.208Z,99091.06
2023-03-31T16:46:09.532Z,99088.28
2023-03-31T16:48:35.956Z,99098.22
2023-03-31T16:51:02.334Z,99086.44
2023-03-31T16:53:31.925Z,99089.22
2023-03-31T16:55:58.267Z,99092.78
2023-03-31T16:58:24.637Z,99096.38
2023-03-31T17:00:51.316Z,99099.25
2023-03-31T17:03:17.933Z,99089.25
2023-03-31T17:05:44.945Z,99095.06
2023-03-31T17:08:11.330Z,99094.97
2023-03-31T17:10:37.770Z,99092.00
2023-03-31T17:13:04.097Z,99094.06
2023-03-31T17:15:30.458Z,99101.94
2023-03-31T17:17:58.757Z,99095.59
2023-03-31T17:20:25.523Z,99097.13
2023-03-31T17:22:52.839Z,99092.78
2023-03-31T17:25:19.221Z,99092.69
2023-03-31T17:27:45.561Z,99098.50
2023-03-31T17:30:12.325Z,99090.28
2023-03-31T17:32:38.732Z,99101.19
2023-03-31T17:35:06.513Z,99108.31
2023-03-31T17:37:33.203Z,99095.00
2023-03-31T17:39:59.548Z,99099.38
2023-03-31T17:42:25.879Z,99099.31
2023-03-31T17:44:53.258Z,99102.91
2023-03-31T17:47:20.347Z,99090.13
2023-03-31T17:49:46.678Z,99095.94
2023-03-31T17:52:13.428Z,99091.16
2023-03-31T17:54:39.818Z,99099.13
2023-03-31T17:57:06.226Z,99091.97
2023-03-31T17:59:32.651Z,99094.72
2023-03-31T18:01:59.229Z,99097.53
2023-03-31T18:04:25.871Z,99094.75
2023-03-31T18:06:52.238Z,99096.97
2023-03-31T18:09:18.582Z,99102.81
2023-03-31T18:11:45.671Z,99102.28
2023-03-31T18:14:11.991Z,99096.75
2023-03-31T18:16:38.376Z,99096.91
2023-03-31T18:19:04.719Z,99090.44
2023-03-31T18:21:31.311Z,99090.34
2023-03-31T18:23:57.653Z,99096.19
2023-03-31T18:26:24.171Z,99090.97
2023-03-31T18:28:50.746Z,99098.72
2023-03-31T18:31:17.232Z,99095.59
2023-03-31T18:33:43.632Z,99100.47
2023-03-31T18:36:13.721Z,99094.75
2023-03-31T18:38:40.156Z,99097.66
2023-03-31T18:41:07.212Z,99095.13
2023-03-31T18:43:33.647Z,99095.31
2023-03-31T18:46:01.289Z,99103.97
2023-03-31T18:48:27.717Z,99105.44
2023-03-31T18:50:54.068Z,99106.28
2023-03-31T18:53:20.984Z,99107.78
2023-03-31T18:55:50.458Z,99108.47
2023-03-31T18:58:17.379Z,99116.41
2023-03-31T19:00:44.041Z,99109.97
2023-03-31T19:03:10.808Z,99115.72
2023-03-31T19:05:37.382Z,99111.19
2023-03-31T19:08:03.750Z,99117.72
2023-03-31T19:10:30.085Z,99115.56
2023-03-31T19:12:56.447Z,99118.25
2023-03-31T19:15:23.249Z,99125.78
2023-03-31T19:17:49.630Z,99119.22
2023-03-31T19:20:18.815Z,99125.06
2023-03-31T19:22:45.700Z,99132.25
2023-03-31T19:25:12.371Z,99129.25
2023-03-31T19:27:39.470Z,99120.63
2023-03-31T19:30:06.153Z,99127.19
2023-03-31T19:32:32.559Z,99125.00
2023-03-31T19:34:58.965Z,99124.94
2023-03-31T19:37:25.716Z,99124.25
2023-03-31T19:39:52.248Z,99118.44
2023-03-31T19:42:18.659Z,99120.56
2023-03-31T19:44:45.613Z,99114.84
2023-03-31T19:47:12.321Z,99114.81
2023-03-31T19:49:38.671Z,99117.00
2023-03-31T19:52:05.597Z,99112.69
2023-03-31T19:54:31.996Z,99111.25
2023-03-31T19:56:58.370Z,99113.25
2023-03-31T19:59:24.728Z,99113.34
2023-03-31T20:01:51.573Z,99113.09
2023-03-31T20:04:18.359Z,99111.13
2023-03-31T20:06:44.872Z,99123.63
2023-03-31T20:09:11.359Z,99124.94
2023-03-31T20:11:37.938Z,99128.59
2023-03-31T20:14:04.306Z,99120.75
2023-03-31T20:16:30.908Z,99128.66
2023-03-31T20:19:02.105Z,99123.63
2023-03-31T20:21:29.059Z,99125.00
2023-03-31T20:23:56.002Z,99123.56
2023-03-31T20:26:24.976Z,99131.38
2023-03-31T20:28:52.134Z,99128.31
2023-03-31T20:31:25.386Z,99129.00
2023-03-31T20:33:51.972Z,99127.53
2023-03-31T20:36:22.662Z,99133.22
2023-03-31T20:38:51.295Z,99130.28
2023-03-31T20:41:18.853Z,99137.44
2023-03-31T20:43:45.533Z,99131.69
2023-03-31T20:46:12.133Z,99127.44
2023-03-31T20:48:39.939Z,99123.16
2023-03-31T20:51:07.549Z,99127.47
2023-03-31T20:53:41.911Z,99121.66
2023-03-31T20:56:09.207Z,99129.53
2023-03-31T20:58:35.520Z,99125.91
2023-03-31T21:01:01.896Z,99127.34
2023-03-31T21:03:28.322Z,99128.75
2023-03-31T21:05:54.666Z,99130.16
2023-03-31T21:08:21.464Z,99137.34
2023-03-31T21:10:47.846Z,99134.47
2023-03-31T21:13:15.390Z,99134.41
2023-03-31T21:15:41.976Z,99138.72
2023-03-31T21:18:08.356Z,99137.25
2023-03-31T21:20:34.744Z,99135.81
2023-03-31T21:23:01.094Z,99145.88
2023-03-31T21:25:27.482Z,99140.06
2023-03-31T21:27:53.816Z,99147.25
2023-03-31T21:30:20.252Z,99145.78
2023-03-31T21:32:46.651Z,99138.59
2023-03-31T21:35:13.024Z,99151.50
2023-03-31T21:37:39.452Z,99139.28
2023-03-31T21:40:06.160Z,99145.72
2023-03-31T21:42:36.121Z,99139.97
2023-03-31T21:45:02.638Z,99143.56
2023-03-31T21:47:29.007Z,99147.13
2023-03-31T21:49:55.392Z,99152.88
2023-03-31T21:52:22.425Z,99147.13
2023-03-31T21:54:48.764Z,99144.19
2023-03-31T21:57:15.121Z,99147.78
2023-03-31T21:59:41.541Z,99148.50
2023-03-31T22:02:08.046Z,99147.03
2023-03-31T22:04:34.533Z,99147.03
2023-03-31T22:07:00.861Z,99149.91
2023-03-31T22:09:27.586Z,99149.88
2023-03-31T22:11:53.919Z,99144.13
2023-03-31T22:14:20.290Z,99147.72
2023-03-31T22:16:46.645Z,99154.19
2023-03-31T22:19:13.131Z,99154.16
2023-03-31T22:21:39.506Z,99157.03
2023-03-31T22:24:05.988Z,99152.69
2023-03-31T22:26:32.355Z,99155.63
2023-03-31T22:28:58.777Z,99158.50
2023-03-31T22:31:26.249Z,99163.50
2023-03-31T22:33:53.194Z,99170.66
2023-03-31T22:36:19.566Z,99164.16
2023-03-31T22:38:45.896Z,99163.44
2023-03-31T22:41:12.207Z,99159.09
2023-03-31T22:43:38.614Z,99160.53
2023-03-31T22:46:05.734Z,99164.13
2023-03-31T22:48:32.277Z,99166.97
2023-03-31T22:50:58.658Z,99161.19
2023-03-31T22:53:24.995Z,99166.94
2023-03-31T22:55:53.914Z,99166.94
2023-03-31T22:58:21.472Z,99161.91
2023-03-31T23:00:54.416Z,99172.69
2023-03-31T23:03:20.757Z,99165.50
2023-03-31T23:05:47.109Z,99174.13
2023-03-31T23:08:13.448Z,99175.53
2023-03-31T23:10:39.772Z,99178.34
2023-03-31T23:13:07.071Z,99177.63
2023-03-31T23:15:36.958Z,99178.31
2023-03-31T23:18:03.368Z,99175.44
2023-03-31T23:20:29.727Z,99179.78
2023-03-31T23:22:58.325Z,99178.31
2023-03-31T23:25:24.686Z,99179.03
2023-03-31T23:27:50.999Z,99178.31
2023-03-31T23:30:17.482Z,99176.84
2023-03-31T23:32:43.868Z,99174.63
2023-03-31T23:35:11.404Z,99178.25
2023-03-31T23:37:37.762Z,99173.91
2023-03-31T23:40:04.668Z,99178.94
2023-03-31T23:42:31.317Z,99178.94
2023-03-31T23:44:57.643Z,99171.75
2023-03-31T23:47:24.556Z,99171.00
2023-03-31T23:49:51.076Z,99176.75
2023-03-31T23:52:17.391Z,99169.56
2023-03-31T23:54:43.780Z,99169.56
2023-03-31T23:57:10.365Z,99155.84
2023-03-31T23:59:36.758Z,99164.47
